sensor_id;sensor_type;location;lat;lon;timestamp;P1;durP1;ratioP1;P2;durP2;ratioP2
54665;SDS011;40566;50.006;36.180;2023-01-15T00:02:36;14.30;;;4.15;;
54665;SDS011;40566;50.006;36.180;2023-01-15T00:07:36;13.30;;;4.95;;
54665;SDS011;40566;50.006;36.180;2023-01-15T00:12:37;16.55;;;4.18;;
54665;SDS011;40566;50.006;36.180;2023-01-15T00:17:37;16.60;;;5.13;;
54665;SDS011;40566;50.006;36.180;2023-01-15T00:22:38;13.07;;;3.22;;
54665;SDS011;40566;50.006;36.180;2023-01-15T00:27:39;21.10;;;4.57;;
54665;SDS011;40566;50.006;36.180;2023-01-15T00:32:40;13.52;;;4.03;;
54665;SDS011;40566;50.006;36.180;2023-01-15T00:37:42;11.05;;;4.53;;
54665;SDS011;40566;50.006;36.180;2023-01-15T00:42:43;17.45;;;5.50;;
54665;SDS011;40566;50.006;36.180;2023-01-15T00:47:44;17.13;;;5.25;;
54665;SDS011;40566;50.006;36.180;2023-01-15T00:52:47;20.50;;;4.15;;
54665;SDS011;40566;50.006;36.180;2023-01-15T00:57:48;15.25;;;3.67;;
54665;SDS011;40566;50.006;36.180;2023-01-15T01:02:49;24.58;;;5.28;;
54665;SDS011;40566;50.006;36.180;2023-01-15T01:07:49;16.48;;;4.97;;
54665;SDS011;40566;50.006;36.180;2023-01-15T01:12:50;18.55;;;5.38;;
54665;SDS011;40566;50.006;36.180;2023-01-15T01:17:51;13.82;;;4.05;;
54665;SDS011;40566;50.006;36.180;2023-01-15T01:22:52;22.77;;;4.38;;
54665;SDS011;40566;50.006;36.180;2023-01-15T01:27:52;14.68;;;3.72;;
54665;SDS011;40566;50.006;36.180;2023-01-15T01:32:53;14.38;;;4.55;;
54665;SDS011;40566;50.006;36.180;2023-01-15T01:37:54;21.95;;;4.85;;
54665;SDS011;40566;50.006;36.180;2023-01-15T01:42:54;15.52;;;5.95;;
54665;SDS011;40566;50.006;36.180;2023-01-15T01:47:56;13.75;;;4.35;;
54665;SDS011;40566;50.006;36.180;2023-01-15T01:53:05;23.58;;;5.07;;
54665;SDS011;40566;50.006;36.180;2023-01-15T01:58:09;17.85;;;5.63;;
54665;SDS011;40566;50.006;36.180;2023-01-15T02:03:11;23.98;;;4.60;;
54665;SDS011;40566;50.006;36.180;2023-01-15T02:08:12;26.25;;;5.90;;
54665;SDS011;40566;50.006;36.180;2023-01-15T02:13:14;23.30;;;5.18;;
54665;SDS011;40566;50.006;36.180;2023-01-15T02:18:42;14.95;;;4.78;;
54665;SDS011;40566;50.006;36.180;2023-01-15T02:29:02;20.23;;;5.63;;
54665;SDS011;40566;50.006;36.180;2023-01-15T02:39:26;15.63;;;4.22;;
54665;SDS011;40566;50.006;36.180;2023-01-15T02:44:29;13.23;;;4.05;;
54665;SDS011;40566;50.006;36.180;2023-01-15T02:49:33;16.77;;;4.47;;
54665;SDS011;40566;50.006;36.180;2023-01-15T02:54:40;16.35;;;4.00;;
54665;SDS011;40566;50.006;36.180;2023-01-15T02:59:45;21.67;;;5.03;;
54665;SDS011;40566;50.006;36.180;2023-01-15T03:04:52;18.92;;;5.00;;
54665;SDS011;40566;50.006;36.180;2023-01-15T03:10:17;19.55;;;4.90;;
54665;SDS011;40566;50.006;36.180;2023-01-15T03:15:21;15.52;;;4.75;;
54665;SDS011;40566;50.006;36.180;2023-01-15T03:20:42;17.95;;;5.72;;
54665;SDS011;40566;50.006;36.180;2023-01-15T03:25:49;23.92;;;9.15;;
54665;SDS011;40566;50.006;36.180;2023-01-15T03:30:50;16.38;;;5.95;;
54665;SDS011;40566;50.006;36.180;2023-01-15T03:35:53;27.83;;;7.95;;
54665;SDS011;40566;50.006;36.180;2023-01-15T03:46:14;18.35;;;5.68;;
54665;SDS011;40566;50.006;36.180;2023-01-15T03:51:33;20.55;;;5.55;;
54665;SDS011;40566;50.006;36.180;2023-01-15T03:56:42;19.10;;;6.43;;
54665;SDS011;40566;50.006;36.180;2023-01-15T04:01:54;15.07;;;5.82;;
54665;SDS011;40566;50.006;36.180;2023-01-15T04:06:56;21.23;;;5.88;;
54665;SDS011;40566;50.006;36.180;2023-01-15T04:11:58;28.75;;;5.40;;
54665;SDS011;40566;50.006;36.180;2023-01-15T04:16:59;21.40;;;5.47;;
54665;SDS011;40566;50.006;36.180;2023-01-15T04:22:00;18.73;;;5.88;;
54665;SDS011;40566;50.006;36.180;2023-01-15T04:27:00;15.20;;;5.68;;
54665;SDS011;40566;50.006;36.180;2023-01-15T04:32:01;21.25;;;6.90;;
54665;SDS011;40566;50.006;36.180;2023-01-15T04:37:02;14.35;;;4.90;;
54665;SDS011;40566;50.006;36.180;2023-01-15T04:42:02;19.50;;;5.45;;
54665;SDS011;40566;50.006;36.180;2023-01-15T04:47:21;18.10;;;7.70;;
54665;SDS011;40566;50.006;36.180;2023-01-15T04:52:22;22.02;;;5.95;;
54665;SDS011;40566;50.006;36.180;2023-01-15T04:57:23;17.83;;;6.00;;
54665;SDS011;40566;50.006;36.180;2023-01-15T05:02:23;22.02;;;6.95;;
54665;SDS011;40566;50.006;36.180;2023-01-15T05:07:24;19.30;;;6.18;;
54665;SDS011;40566;50.006;36.180;2023-01-15T05:12:24;18.70;;;4.95;;
54665;SDS011;40566;50.006;36.180;2023-01-15T05:17:25;24.27;;;6.47;;
54665;SDS011;40566;50.006;36.180;2023-01-15T05:22:26;29.52;;;8.57;;
54665;SDS011;40566;50.006;36.180;2023-01-15T05:27:26;22.83;;;6.55;;
54665;SDS011;40566;50.006;36.180;2023-01-15T05:32:28;19.70;;;6.30;;
54665;SDS011;40566;50.006;36.180;2023-01-15T05:37:29;30.02;;;8.63;;
54665;SDS011;40566;50.006;36.180;2023-01-15T05:42:30;23.98;;;5.65;;
54665;SDS011;40566;50.006;36.180;2023-01-15T05:47:30;17.10;;;5.25;;
54665;SDS011;40566;50.006;36.180;2023-01-15T05:52:31;30.17;;;6.10;;
54665;SDS011;40566;50.006;36.180;2023-01-15T05:57:32;27.02;;;5.93;;
54665;SDS011;40566;50.006;36.180;2023-01-15T06:02:32;26.58;;;7.35;;
54665;SDS011;40566;50.006;36.180;2023-01-15T06:07:33;24.77;;;7.65;;
54665;SDS011;40566;50.006;36.180;2023-01-15T06:12:33;16.25;;;5.82;;
54665;SDS011;40566;50.006;36.180;2023-01-15T06:17:34;27.08;;;6.72;;
54665;SDS011;40566;50.006;36.180;2023-01-15T06:22:35;39.15;;;9.95;;
54665;SDS011;40566;50.006;36.180;2023-01-15T06:27:37;21.15;;;7.43;;
54665;SDS011;40566;50.006;36.180;2023-01-15T06:32:38;23.10;;;8.10;;
54665;SDS011;40566;50.006;36.180;2023-01-15T06:37:39;22.90;;;6.55;;
54665;SDS011;40566;50.006;36.180;2023-01-15T06:42:39;17.65;;;6.63;;
54665;SDS011;40566;50.006;36.180;2023-01-15T06:47:58;29.52;;;13.88;;
54665;SDS011;40566;50.006;36.180;2023-01-15T06:52:59;26.88;;;10.75;;
54665;SDS011;40566;50.006;36.180;2023-01-15T06:58:01;25.83;;;9.63;;
54665;SDS011;40566;50.006;36.180;2023-01-15T07:03:03;17.20;;;6.97;;
54665;SDS011;40566;50.006;36.180;2023-01-15T07:08:04;20.58;;;8.45;;
54665;SDS011;40566;50.006;36.180;2023-01-15T07:13:04;20.35;;;5.50;;
54665;SDS011;40566;50.006;36.180;2023-01-15T07:18:06;20.85;;;6.78;;
54665;SDS011;40566;50.006;36.180;2023-01-15T07:23:06;19.67;;;7.15;;
54665;SDS011;40566;50.006;36.180;2023-01-15T07:28:07;17.75;;;5.57;;
54665;SDS011;40566;50.006;36.180;2023-01-15T07:33:08;18.17;;;5.78;;
54665;SDS011;40566;50.006;36.180;2023-01-15T07:38:08;16.88;;;6.80;;
54665;SDS011;40566;50.006;36.180;2023-01-15T07:43:09;15.02;;;5.22;;
54665;SDS011;40566;50.006;36.180;2023-01-15T07:48:28;17.70;;;6.75;;
54665;SDS011;40566;50.006;36.180;2023-01-15T07:53:47;14.20;;;6.10;;
54665;SDS011;40566;50.006;36.180;2023-01-15T07:58:48;20.38;;;6.32;;
54665;SDS011;40566;50.006;36.180;2023-01-15T08:03:49;24.50;;;7.80;;
54665;SDS011;40566;50.006;36.180;2023-01-15T08:08:52;21.08;;;6.55;;
54665;SDS011;40566;50.006;36.180;2023-01-15T08:13:53;19.25;;;7.53;;
54665;SDS011;40566;50.006;36.180;2023-01-15T08:19:12;20.90;;;6.88;;
54665;SDS011;40566;50.006;36.180;2023-01-15T08:24:13;28.20;;;7.05;;
54665;SDS011;40566;50.006;36.180;2023-01-15T08:29:13;14.90;;;5.93;;
54665;SDS011;40566;50.006;36.180;2023-01-15T08:34:14;23.98;;;6.13;;
54665;SDS011;40566;50.006;36.180;2023-01-15T08:39:14;23.38;;;6.70;;
54665;SDS011;40566;50.006;36.180;2023-01-15T08:44:15;16.08;;;5.97;;
54665;SDS011;40566;50.006;36.180;2023-01-15T08:49:16;20.33;;;5.93;;
54665;SDS011;40566;50.006;36.180;2023-01-15T08:54:19;19.88;;;6.50;;
54665;SDS011;40566;50.006;36.180;2023-01-15T08:59:21;22.75;;;7.18;;
54665;SDS011;40566;50.006;36.180;2023-01-15T09:04:21;31.08;;;8.18;;
54665;SDS011;40566;50.006;36.180;2023-01-15T09:09:22;18.30;;;6.35;;
54665;SDS011;40566;50.006;36.180;2023-01-15T09:14:23;24.10;;;6.38;;
54665;SDS011;40566;50.006;36.180;2023-01-15T09:19:23;29.90;;;6.95;;
54665;SDS011;40566;50.006;36.180;2023-01-15T09:24:24;27.60;;;6.97;;
54665;SDS011;40566;50.006;36.180;2023-01-15T09:29:25;26.45;;;7.70;;
54665;SDS011;40566;50.006;36.180;2023-01-15T09:34:26;24.00;;;8.35;;
54665;SDS011;40566;50.006;36.180;2023-01-15T09:39:26;17.13;;;7.15;;
54665;SDS011;40566;50.006;36.180;2023-01-15T09:44:37;21.75;;;8.85;;
54665;SDS011;40566;50.006;36.180;2023-01-15T09:55:15;28.23;;;6.33;;
54665;SDS011;40566;50.006;36.180;2023-01-15T10:00:22;20.60;;;6.82;;
54665;SDS011;40566;50.006;36.180;2023-01-15T10:05:27;27.98;;;8.68;;
54665;SDS011;40566;50.006;36.180;2023-01-15T10:10:34;20.07;;;7.47;;
54665;SDS011;40566;50.006;36.180;2023-01-15T10:15:44;29.27;;;8.07;;
54665;SDS011;40566;50.006;36.180;2023-01-15T10:20:57;18.73;;;7.10;;
54665;SDS011;40566;50.006;36.180;2023-01-15T10:58:36;58.55;;;22.23;;
54665;SDS011;40566;50.006;36.180;2023-01-15T11:03:41;22.00;;;8.57;;
54665;SDS011;40566;50.006;36.180;2023-01-15T11:08:52;40.97;;;15.00;;
54665;SDS011;40566;50.006;36.180;2023-01-15T11:13:55;50.15;;;17.45;;
54665;SDS011;40566;50.006;36.180;2023-01-15T11:19:24;55.38;;;21.33;;
54665;SDS011;40566;50.006;36.180;2023-01-15T11:24:44;43.42;;;12.75;;
54665;SDS011;40566;50.006;36.180;2023-01-15T11:30:06;35.20;;;8.73;;
54665;SDS011;40566;50.006;36.180;2023-01-15T11:35:25;21.50;;;7.45;;
54665;SDS011;40566;50.006;36.180;2023-01-15T11:40:26;34.38;;;11.63;;
54665;SDS011;40566;50.006;36.180;2023-01-15T11:45:27;34.08;;;13.38;;
54665;SDS011;40566;50.006;36.180;2023-01-15T11:50:54;71.22;;;25.13;;
54665;SDS011;40566;50.006;36.180;2023-01-15T11:56:00;72.00;;;27.05;;
54665;SDS011;40566;50.006;36.180;2023-01-15T12:01:05;36.35;;;9.05;;
54665;SDS011;40566;50.006;36.180;2023-01-15T12:06:09;28.52;;;8.23;;
54665;SDS011;40566;50.006;36.180;2023-01-15T12:11:17;22.60;;;6.38;;
54665;SDS011;40566;50.006;36.180;2023-01-15T12:16:34;20.90;;;5.55;;
54665;SDS011;40566;50.006;36.180;2023-01-15T12:32:43;29.25;;;7.13;;
54665;SDS011;40566;50.006;36.180;2023-01-15T12:37:54;32.25;;;5.40;;
54665;SDS011;40566;50.006;36.180;2023-01-15T12:43:00;30.63;;;6.85;;
54665;SDS011;40566;50.006;36.180;2023-01-15T12:48:31;33.70;;;6.70;;
54665;SDS011;40566;50.006;36.180;2023-01-15T12:53:46;33.92;;;7.50;;
54665;SDS011;40566;50.006;36.180;2023-01-15T12:59:00;35.42;;;6.65;;
54665;SDS011;40566;50.006;36.180;2023-01-15T13:10:00;28.25;;;6.82;;
54665;SDS011;40566;50.006;36.180;2023-01-15T13:15:14;31.77;;;7.35;;
54665;SDS011;40566;50.006;36.180;2023-01-15T13:25:28;34.15;;;6.80;;
54665;SDS011;40566;50.006;36.180;2023-01-15T13:35:45;31.90;;;7.00;;
54665;SDS011;40566;50.006;36.180;2023-01-15T13:40:50;45.00;;;9.15;;
54665;SDS011;40566;50.006;36.180;2023-01-15T13:45:54;38.80;;;8.88;;
54665;SDS011;40566;50.006;36.180;2023-01-15T13:51:00;38.78;;;7.72;;
54665;SDS011;40566;50.006;36.180;2023-01-15T13:56:04;45.55;;;6.90;;
54665;SDS011;40566;50.006;36.180;2023-01-15T14:06:21;73.45;;;15.45;;
54665;SDS011;40566;50.006;36.180;2023-01-15T14:11:38;67.95;;;17.27;;
54665;SDS011;40566;50.006;36.180;2023-01-15T14:27:57;45.28;;;9.55;;
54665;SDS011;40566;50.006;36.180;2023-01-15T14:33:21;58.25;;;13.70;;
54665;SDS011;40566;50.006;36.180;2023-01-15T14:38:43;47.08;;;10.23;;
54665;SDS011;40566;50.006;36.180;2023-01-15T14:48:48;34.67;;;6.85;;
54665;SDS011;40566;50.006;36.180;2023-01-15T14:53:56;39.63;;;8.57;;
54665;SDS011;40566;50.006;36.180;2023-01-15T14:59:08;22.73;;;6.40;;
54665;SDS011;40566;50.006;36.180;2023-01-15T15:09:35;38.67;;;5.80;;
54665;SDS011;40566;50.006;36.180;2023-01-15T15:15:20;28.05;;;6.22;;
54665;SDS011;40566;50.006;36.180;2023-01-15T15:25:57;33.17;;;6.35;;
54665;SDS011;40566;50.006;36.180;2023-01-15T15:31:01;46.72;;;8.65;;
54665;SDS011;40566;50.006;36.180;2023-01-15T15:36:02;32.85;;;7.47;;
54665;SDS011;40566;50.006;36.180;2023-01-15T15:41:04;29.15;;;7.40;;
54665;SDS011;40566;50.006;36.180;2023-01-15T15:46:23;43.25;;;7.50;;
54665;SDS011;40566;50.006;36.180;2023-01-15T15:51:45;49.47;;;7.75;;
54665;SDS011;40566;50.006;36.180;2023-01-15T15:57:01;33.70;;;7.40;;
54665;SDS011;40566;50.006;36.180;2023-01-15T16:02:18;36.33;;;7.05;;
54665;SDS011;40566;50.006;36.180;2023-01-15T16:07:24;44.47;;;10.50;;
54665;SDS011;40566;50.006;36.180;2023-01-15T16:12:28;23.90;;;7.47;;
54665;SDS011;40566;50.006;36.180;2023-01-15T16:17:30;36.40;;;6.15;;
54665;SDS011;40566;50.006;36.180;2023-01-15T16:22:31;37.75;;;9.57;;
54665;SDS011;40566;50.006;36.180;2023-01-15T16:27:32;34.53;;;9.00;;
54665;SDS011;40566;50.006;36.180;2023-01-15T16:32:34;36.05;;;10.07;;
54665;SDS011;40566;50.006;36.180;2023-01-15T16:37:36;37.53;;;13.68;;
54665;SDS011;40566;50.006;36.180;2023-01-15T16:42:37;35.33;;;8.07;;
54665;SDS011;40566;50.006;36.180;2023-01-15T16:47:43;45.25;;;8.75;;
54665;SDS011;40566;50.006;36.180;2023-01-15T16:58:32;34.03;;;7.80;;
54665;SDS011;40566;50.006;36.180;2023-01-15T17:03:38;30.20;;;7.78;;
54665;SDS011;40566;50.006;36.180;2023-01-15T17:08:43;30.77;;;6.75;;
54665;SDS011;40566;50.006;36.180;2023-01-15T17:13:47;40.47;;;10.07;;
54665;SDS011;40566;50.006;36.180;2023-01-15T17:18:48;31.80;;;9.23;;
54665;SDS011;40566;50.006;36.180;2023-01-15T17:23:50;58.85;;;16.35;;
54665;SDS011;40566;50.006;36.180;2023-01-15T17:28:51;50.85;;;10.93;;
54665;SDS011;40566;50.006;36.180;2023-01-15T17:33:52;41.08;;;10.80;;
54665;SDS011;40566;50.006;36.180;2023-01-15T17:38:53;35.85;;;8.77;;
54665;SDS011;40566;50.006;36.180;2023-01-15T17:43:54;27.80;;;6.97;;
54665;SDS011;40566;50.006;36.180;2023-01-15T17:48:55;29.35;;;8.45;;
54665;SDS011;40566;50.006;36.180;2023-01-15T17:53:55;50.83;;;8.43;;
54665;SDS011;40566;50.006;36.180;2023-01-15T17:58:56;47.88;;;12.38;;
54665;SDS011;40566;50.006;36.180;2023-01-15T18:09:57;42.75;;;9.05;;
54665;SDS011;40566;50.006;36.180;2023-01-15T18:14:59;38.10;;;8.82;;
54665;SDS011;40566;50.006;36.180;2023-01-15T18:20:00;38.72;;;8.73;;
54665;SDS011;40566;50.006;36.180;2023-01-15T18:25:01;43.92;;;8.50;;
54665;SDS011;40566;50.006;36.180;2023-01-15T18:30:01;33.38;;;7.22;;
54665;SDS011;40566;50.006;36.180;2023-01-15T18:35:02;58.10;;;13.02;;
54665;SDS011;40566;50.006;36.180;2023-01-15T18:40:04;40.03;;;8.23;;
54665;SDS011;40566;50.006;36.180;2023-01-15T18:45:07;32.60;;;10.02;;
54665;SDS011;40566;50.006;36.180;2023-01-15T18:50:27;36.60;;;7.95;;
54665;SDS011;40566;50.006;36.180;2023-01-15T18:55:28;36.60;;;7.88;;
54665;SDS011;40566;50.006;36.180;2023-01-15T19:00:29;38.13;;;9.45;;
54665;SDS011;40566;50.006;36.180;2023-01-15T19:05:29;32.35;;;6.93;;
54665;SDS011;40566;50.006;36.180;2023-01-15T19:10:30;37.17;;;7.40;;
54665;SDS011;40566;50.006;36.180;2023-01-15T19:15:30;31.98;;;7.22;;
54665;SDS011;40566;50.006;36.180;2023-01-15T19:20:50;44.10;;;7.50;;
54665;SDS011;40566;50.006;36.180;2023-01-15T19:25:53;25.50;;;6.97;;
54665;SDS011;40566;50.006;36.180;2023-01-15T19:30:54;48.80;;;9.15;;
54665;SDS011;40566;50.006;36.180;2023-01-15T19:36:13;46.08;;;8.50;;
54665;SDS011;40566;50.006;36.180;2023-01-15T19:41:14;44.42;;;8.27;;
54665;SDS011;40566;50.006;36.180;2023-01-15T19:46:33;38.78;;;8.73;;
54665;SDS011;40566;50.006;36.180;2023-01-15T19:51:53;38.45;;;8.48;;
54665;SDS011;40566;50.006;36.180;2023-01-15T19:57:12;43.20;;;7.70;;
54665;SDS011;40566;50.006;36.180;2023-01-15T20:02:15;31.50;;;8.05;;
54665;SDS011;40566;50.006;36.180;2023-01-15T20:07:16;46.38;;;9.50;;
54665;SDS011;40566;50.006;36.180;2023-01-15T20:12:16;36.85;;;9.27;;
54665;SDS011;40566;50.006;36.180;2023-01-15T20:17:35;59.35;;;9.00;;
54665;SDS011;40566;50.006;36.180;2023-01-15T20:22:36;39.17;;;8.43;;
54665;SDS011;40566;50.006;36.180;2023-01-15T20:27:37;31.55;;;7.65;;
54665;SDS011;40566;50.006;36.180;2023-01-15T20:32:43;19.52;;;6.63;;
54665;SDS011;40566;50.006;36.180;2023-01-15T20:37:45;21.52;;;5.78;;
54665;SDS011;40566;50.006;36.180;2023-01-15T20:42:49;46.60;;;8.65;;
54665;SDS011;40566;50.006;36.180;2023-01-15T20:48:08;35.47;;;7.78;;
54665;SDS011;40566;50.006;36.180;2023-01-15T20:53:12;31.10;;;7.60;;
54665;SDS011;40566;50.006;36.180;2023-01-15T20:58:12;23.83;;;6.53;;
54665;SDS011;40566;50.006;36.180;2023-01-15T21:03:13;32.63;;;6.93;;
54665;SDS011;40566;50.006;36.180;2023-01-15T21:08:13;34.80;;;6.20;;
54665;SDS011;40566;50.006;36.180;2023-01-15T21:13:14;29.05;;;7.03;;
54665;SDS011;40566;50.006;36.180;2023-01-15T21:18:14;32.85;;;6.82;;
54665;SDS011;40566;50.006;36.180;2023-01-15T21:23:15;42.00;;;7.05;;
54665;SDS011;40566;50.006;36.180;2023-01-15T21:28:16;33.45;;;7.00;;
54665;SDS011;40566;50.006;36.180;2023-01-15T21:33:16;20.05;;;6.60;;
54665;SDS011;40566;50.006;36.180;2023-01-15T21:38:17;19.98;;;6.35;;
54665;SDS011;40566;50.006;36.180;2023-01-15T21:43:18;34.38;;;8.48;;
54665;SDS011;40566;50.006;36.180;2023-01-15T21:48:37;24.75;;;6.78;;
54665;SDS011;40566;50.006;36.180;2023-01-15T21:53:37;28.25;;;6.10;;
54665;SDS011;40566;50.006;36.180;2023-01-15T21:58:38;32.83;;;8.07;;
54665;SDS011;40566;50.006;36.180;2023-01-15T22:03:39;27.25;;;7.57;;
54665;SDS011;40566;50.006;36.180;2023-01-15T22:08:40;37.50;;;8.20;;
54665;SDS011;40566;50.006;36.180;2023-01-15T22:13:40;29.52;;;7.22;;
54665;SDS011;40566;50.006;36.180;2023-01-15T22:18:41;29.23;;;7.63;;
54665;SDS011;40566;50.006;36.180;2023-01-15T22:23:41;35.47;;;7.30;;
54665;SDS011;40566;50.006;36.180;2023-01-15T22:28:43;31.55;;;6.45;;
54665;SDS011;40566;50.006;36.180;2023-01-15T22:33:44;34.42;;;8.55;;
54665;SDS011;40566;50.006;36.180;2023-01-15T22:38:45;30.85;;;6.82;;
54665;SDS011;40566;50.006;36.180;2023-01-15T22:43:46;25.35;;;6.97;;
54665;SDS011;40566;50.006;36.180;2023-01-15T22:48:46;30.20;;;6.43;;
54665;SDS011;40566;50.006;36.180;2023-01-15T22:53:47;31.95;;;6.45;;
54665;SDS011;40566;50.006;36.180;2023-01-15T22:58:48;24.83;;;6.53;;
54665;SDS011;40566;50.006;36.180;2023-01-15T23:03:49;27.95;;;6.25;;
54665;SDS011;40566;50.006;36.180;2023-01-15T23:08:59;37.50;;;7.07;;
54665;SDS011;40566;50.006;36.180;2023-01-15T23:14:01;30.15;;;6.35;;
54665;SDS011;40566;50.006;36.180;2023-01-15T23:19:03;25.90;;;7.00;;
54665;SDS011;40566;50.006;36.180;2023-01-15T23:24:05;24.50;;;6.00;;
54665;SDS011;40566;50.006;36.180;2023-01-15T23:29:06;39.47;;;6.93;;
54665;SDS011;40566;50.006;36.180;2023-01-15T23:34:06;26.05;;;6.63;;
54665;SDS011;40566;50.006;36.180;2023-01-15T23:39:07;21.10;;;5.60;;
54665;SDS011;40566;50.006;36.180;2023-01-15T23:44:14;29.38;;;7.10;;
54665;SDS011;40566;50.006;36.180;2023-01-15T23:49:35;32.08;;;6.50;;
54665;SDS011;40566;50.006;36.180;2023-01-15T23:54:36;35.55;;;7.35;;
54665;SDS011;40566;50.006;36.180;2023-01-15T23:59:37;32.50;;;7.47;;
